Aspen, CO (81611)

1:18 PM MST on December 19, 2014 (GMT -0700)
CODOT Aspen (10) | Change Station
CLOSE
Current Station
Personal Weather Station
Location: Aspen, CO
Elevation: 8111 ft
Nearby Weather Stations
Active Advisory: Winter Storm Watch Active Notice: Local Storm Report

Elev 8111 ft 39.19 °N, 106.85 °W | Updated 36 minutes ago

Partly Cloudy
Partly Cloudy
30 °F
Feels Like 30 °F
N
3
Wind Variable Wind from WSW
Gusts 6.0 mph

Today
High -- | Low -- °F
--% Chance of Precip.
Yesterday
High -- | Low -- °F
Precip. -- in
7:22 AM 4:46 PM
Waning Crescent, 6% visible
Pressure 30.15 in
Visibility 10.0 miles
Clouds Scattered Clouds 3000 ft
Windchill 30 °F
Dew Point 13 °F
Humidity 48%
Rainfall -999.00 in
Snow Depth Not available.
UV 2 out of 12
Pollen .10 out of 12
Air Quality Not available.
Flu Activity Not available.
METAR KASE 191953Z 31003KT 10SM SCT030 M01/M10 A3016 RMK AO2 SLP210 T10111100

More Conditions Fewer Conditions

Pressure 30.15 in
Visibility 10.0 miles
Clouds Scattered Clouds 3000 ft
Windchill 30 °F
Dew Point 13 °F
Humidity 48%
Rainfall -999.00 in
Snow Depth Not available.
UV 2 out of 12
Pollen .10 out of 12
Air Quality Not available.
Flu Activity Not available.
METAR KASE 191953Z 31003KT 10SM SCT030 M01/M10 A3016 RMK AO2 SLP210 T10111100

More Conditions Fewer Conditions

10-Day Weather Forecast

Almanac

Astronomy

Dec. 19, 2014 Rise Set
Actual Time
Civil Twilight
Nautical Twilight
Astronomical Twilight
Moon
Length of Visible Light
Length of Day
Tomorrow will be .
, % of the Moon is Illuminated

Today's Extremes

State Highs State Lows

Community

WunderPhotos

Upload Photos

1,779,048 photos uploaded!

WunderBlogs® & News

Nearby

Air Quality

  Air Quality AQ Index Pollutant
Not available.

Snow Depth

Station Depth Elevation

Earthquake Activity

City Distance Mag. Time & Date
Minimum magnitude displayed is 2.5.

Coastal Water Temperatures

Place Temperature

Nearby Weather Stations